sensor_id;sensor_type;location;lat;lon;timestamp;temperature;humidity
16178;DHT22;8195;51.220;9.746;2023-04-15T00:01:23;5.90;97.20
16178;DHT22;8195;51.220;9.746;2023-04-15T00:11:45;5.90;97.20
16178;DHT22;8195;51.220;9.746;2023-04-15T00:22:06;5.80;97.20
16178;DHT22;8195;51.220;9.746;2023-04-15T00:32:27;5.90;97.20
16178;DHT22;8195;51.220;9.746;2023-04-15T00:42:48;5.90;97.20
16178;DHT22;8195;51.220;9.746;2023-04-15T00:53:09;6.20;97.20
16178;DHT22;8195;51.220;9.746;2023-04-15T01:03:30;6.40;97.20
16178;DHT22;8195;51.220;9.746;2023-04-15T01:13:51;6.50;97.20
16178;DHT22;8195;51.220;9.746;2023-04-15T01:24:33;6.60;97.20
16178;DHT22;8195;51.220;9.746;2023-04-15T01:34:55;6.70;97.20
16178;DHT22;8195;51.220;9.746;2023-04-15T01:45:19;6.70;97.20
16178;DHT22;8195;51.220;9.746;2023-04-15T01:55:40;6.70;97.20
16178;DHT22;8195;51.220;9.746;2023-04-15T02:06:01;6.60;97.20
16178;DHT22;8195;51.220;9.746;2023-04-15T02:16:25;6.70;97.20
16178;DHT22;8195;51.220;9.746;2023-04-15T02:26:46;6.70;97.20
16178;DHT22;8195;51.220;9.746;2023-04-15T02:37:08;6.60;97.20
16178;DHT22;8195;51.220;9.746;2023-04-15T02:47:29;6.60;97.20
16178;DHT22;8195;51.220;9.746;2023-04-15T02:57:50;6.60;97.20
16178;DHT22;8195;51.220;9.746;2023-04-15T03:08:11;6.50;97.20
16178;DHT22;8195;51.220;9.746;2023-04-15T03:18:32;6.50;97.20
16178;DHT22;8195;51.220;9.746;2023-04-15T03:28:53;6.50;97.20
16178;DHT22;8195;51.220;9.746;2023-04-15T03:39:14;6.50;97.20
16178;DHT22;8195;51.220;9.746;2023-04-15T03:49:36;6.50;97.20
16178;DHT22;8195;51.220;9.746;2023-04-15T03:59:57;6.40;97.20
16178;DHT22;8195;51.220;9.746;2023-04-15T04:10:18;6.50;97.20
16178;DHT22;8195;51.220;9.746;2023-04-15T04:20:39;6.40;97.20
16178;DHT22;8195;51.220;9.746;2023-04-15T04:31:00;6.40;97.20
16178;DHT22;8195;51.220;9.746;2023-04-15T04:41:21;6.50;97.20
16178;DHT22;8195;51.220;9.746;2023-04-15T04:51:41;6.40;97.20
16178;DHT22;8195;51.220;9.746;2023-04-15T05:02:02;6.50;97.20
16178;DHT22;8195;51.220;9.746;2023-04-15T05:12:27;6.50;97.20
16178;DHT22;8195;51.220;9.746;2023-04-15T05:22:48;6.60;97.20
16178;DHT22;8195;51.220;9.746;2023-04-15T05:33:08;6.60;97.20
16178;DHT22;8195;51.220;9.746;2023-04-15T05:43:29;6.70;97.20
16178;DHT22;8195;51.220;9.746;2023-04-15T05:54:27;6.70;97.20
16178;DHT22;8195;51.220;9.746;2023-04-15T06:04:41;6.80;97.20
16178;DHT22;8195;51.220;9.746;2023-04-15T06:26:08;6.70;97.20
16178;DHT22;8195;51.220;9.746;2023-04-15T06:36:29;6.90;97.20
16178;DHT22;8195;51.220;9.746;2023-04-15T06:46:58;6.80;97.20
16178;DHT22;8195;51.220;9.746;2023-04-15T06:57:28;6.90;97.20
16178;DHT22;8195;51.220;9.746;2023-04-15T07:07:49;7.00;97.20
16178;DHT22;8195;51.220;9.746;2023-04-15T07:18:10;6.90;97.20
16178;DHT22;8195;51.220;9.746;2023-04-15T07:28:31;7.00;97.20
16178;DHT22;8195;51.220;9.746;2023-04-15T07:38:55;7.10;97.20
16178;DHT22;8195;51.220;9.746;2023-04-15T07:49:19;7.10;97.20
16178;DHT22;8195;51.220;9.746;2023-04-15T07:59:40;7.10;97.20
16178;DHT22;8195;51.220;9.746;2023-04-15T08:10:01;7.10;97.20
16178;DHT22;8195;51.220;9.746;2023-04-15T08:20:25;7.10;97.20
16178;DHT22;8195;51.220;9.746;2023-04-15T08:30:46;7.20;97.20
16178;DHT22;8195;51.220;9.746;2023-04-15T08:41:24;7.20;97.20
16178;DHT22;8195;51.220;9.746;2023-04-15T08:51:45;7.20;97.20
16178;DHT22;8195;51.220;9.746;2023-04-15T09:02:10;7.30;97.20
16178;DHT22;8195;51.220;9.746;2023-04-15T09:12:36;7.20;97.20
16178;DHT22;8195;51.220;9.746;2023-04-15T09:34:05;7.30;97.20
16178;DHT22;8195;51.220;9.746;2023-04-15T09:44:29;7.40;97.20
16178;DHT22;8195;51.220;9.746;2023-04-15T09:54:52;7.40;97.20
16178;DHT22;8195;51.220;9.746;2023-04-15T10:05:17;7.40;97.20
16178;DHT22;8195;51.220;9.746;2023-04-15T10:16:28;7.30;97.20
16178;DHT22;8195;51.220;9.746;2023-04-15T10:26:24;7.20;97.20
16178;DHT22;8195;51.220;9.746;2023-04-15T10:36:52;7.40;97.20
16178;DHT22;8195;51.220;9.746;2023-04-15T10:47:19;7.50;97.20
16178;DHT22;8195;51.220;9.746;2023-04-15T10:57:43;7.60;97.20
16178;DHT22;8195;51.220;9.746;2023-04-15T11:08:04;7.60;97.20
16178;DHT22;8195;51.220;9.746;2023-04-15T11:18:33;7.60;97.20
16178;DHT22;8195;51.220;9.746;2023-04-15T11:28:54;7.50;97.20
16178;DHT22;8195;51.220;9.746;2023-04-15T11:39:15;7.40;97.20
16178;DHT22;8195;51.220;9.746;2023-04-15T11:49:36;7.40;97.20
16178;DHT22;8195;51.220;9.746;2023-04-15T11:59:57;7.50;97.20
16178;DHT22;8195;51.220;9.746;2023-04-15T12:10:17;7.60;97.20
16178;DHT22;8195;51.220;9.746;2023-04-15T12:20:45;7.80;97.20
16178;DHT22;8195;51.220;9.746;2023-04-15T12:31:06;7.70;97.20
16178;DHT22;8195;51.220;9.746;2023-04-15T12:41:27;7.80;97.20
16178;DHT22;8195;51.220;9.746;2023-04-15T12:51:49;7.80;97.20
16178;DHT22;8195;51.220;9.746;2023-04-15T13:02:10;7.80;97.20
16178;DHT22;8195;51.220;9.746;2023-04-15T13:12:32;7.80;97.20
16178;DHT22;8195;51.220;9.746;2023-04-15T13:22:53;7.70;97.20
16178;DHT22;8195;51.220;9.746;2023-04-15T13:33:17;7.60;97.20
16178;DHT22;8195;51.220;9.746;2023-04-15T13:43:38;7.70;97.20
16178;DHT22;8195;51.220;9.746;2023-04-15T13:53:59;7.60;97.20
16178;DHT22;8195;51.220;9.746;2023-04-15T14:04:19;7.80;97.20
16178;DHT22;8195;51.220;9.746;2023-04-15T14:14:42;7.80;97.20
16178;DHT22;8195;51.220;9.746;2023-04-15T14:25:03;7.90;97.20
16178;DHT22;8195;51.220;9.746;2023-04-15T14:35:24;7.90;97.20
16178;DHT22;8195;51.220;9.746;2023-04-15T14:45:45;8.00;97.20
16178;DHT22;8195;51.220;9.746;2023-04-15T14:56:06;8.10;97.20
16178;DHT22;8195;51.220;9.746;2023-04-15T15:06:27;8.00;97.20
16178;DHT22;8195;51.220;9.746;2023-04-15T15:16:48;8.10;97.20
16178;DHT22;8195;51.220;9.746;2023-04-15T15:27:09;8.20;97.20
16178;DHT22;8195;51.220;9.746;2023-04-15T15:37:30;8.20;97.20
16178;DHT22;8195;51.220;9.746;2023-04-15T15:47:51;8.20;97.20
16178;DHT22;8195;51.220;9.746;2023-04-15T15:58:12;8.30;97.20
16178;DHT22;8195;51.220;9.746;2023-04-15T16:08:33;8.30;97.20
16178;DHT22;8195;51.220;9.746;2023-04-15T16:18:56;8.30;97.20
16178;DHT22;8195;51.220;9.746;2023-04-15T16:29:17;8.40;97.20
16178;DHT22;8195;51.220;9.746;2023-04-15T16:39:38;8.40;97.20
16178;DHT22;8195;51.220;9.746;2023-04-15T16:49:59;8.40;97.20
16178;DHT22;8195;51.220;9.746;2023-04-15T17:00:23;8.40;97.20
16178;DHT22;8195;51.220;9.746;2023-04-15T17:10:44;8.40;97.20
16178;DHT22;8195;51.220;9.746;2023-04-15T17:21:05;8.40;97.20
16178;DHT22;8195;51.220;9.746;2023-04-15T17:31:28;8.40;97.20
16178;DHT22;8195;51.220;9.746;2023-04-15T17:41:49;8.40;97.20
16178;DHT22;8195;51.220;9.746;2023-04-15T17:52:28;8.50;97.20
16178;DHT22;8195;51.220;9.746;2023-04-15T18:14:03;8.60;97.20
16178;DHT22;8195;51.220;9.746;2023-04-15T18:24:24;8.60;97.20
16178;DHT22;8195;51.220;9.746;2023-04-15T18:34:45;8.70;97.20
16178;DHT22;8195;51.220;9.746;2023-04-15T18:56:08;8.70;97.20
16178;DHT22;8195;51.220;9.746;2023-04-15T19:06:30;8.70;97.20
16178;DHT22;8195;51.220;9.746;2023-04-15T19:16:51;8.70;97.20
16178;DHT22;8195;51.220;9.746;2023-04-15T19:27:21;8.70;97.20
16178;DHT22;8195;51.220;9.746;2023-04-15T19:37:46;8.70;97.20
16178;DHT22;8195;51.220;9.746;2023-04-15T19:48:10;8.70;97.20
16178;DHT22;8195;51.220;9.746;2023-04-15T19:58:31;8.70;97.20
16178;DHT22;8195;51.220;9.746;2023-04-15T20:08:58;8.70;97.20
16178;DHT22;8195;51.220;9.746;2023-04-15T20:19:26;8.80;97.20
16178;DHT22;8195;51.220;9.746;2023-04-15T20:30:10;8.70;97.20
16178;DHT22;8195;51.220;9.746;2023-04-15T20:40:40;8.70;97.20
16178;DHT22;8195;51.220;9.746;2023-04-15T20:51:04;8.70;97.20
16178;DHT22;8195;51.220;9.746;2023-04-15T21:01:25;8.80;97.20
16178;DHT22;8195;51.220;9.746;2023-04-15T21:11:47;8.80;97.20
16178;DHT22;8195;51.220;9.746;2023-04-15T21:22:08;8.70;97.20
16178;DHT22;8195;51.220;9.746;2023-04-15T21:32:29;8.80;97.20
16178;DHT22;8195;51.220;9.746;2023-04-15T21:42:59;8.80;97.20
16178;DHT22;8195;51.220;9.746;2023-04-15T21:54:02;8.80;97.20
16178;DHT22;8195;51.220;9.746;2023-04-15T22:04:24;8.80;97.20
16178;DHT22;8195;51.220;9.746;2023-04-15T22:14:45;8.80;97.20
16178;DHT22;8195;51.220;9.746;2023-04-15T22:25:07;8.80;97.20
16178;DHT22;8195;51.220;9.746;2023-04-15T22:35:39;8.80;97.20
16178;DHT22;8195;51.220;9.746;2023-04-15T22:46:26;8.90;97.20
16178;DHT22;8195;51.220;9.746;2023-04-15T22:56:47;8.90;97.20
16178;DHT22;8195;51.220;9.746;2023-04-15T23:07:08;8.90;97.20
16178;DHT22;8195;51.220;9.746;2023-04-15T23:17:29;8.90;97.20
16178;DHT22;8195;51.220;9.746;2023-04-15T23:27:59;8.90;97.20
16178;DHT22;8195;51.220;9.746;2023-04-15T23:38:20;8.90;97.20
16178;DHT22;8195;51.220;9.746;2023-04-15T23:48:41;8.90;97.20
16178;DHT22;8195;51.220;9.746;2023-04-15T23:59:02;8.90;97.20
